Time;durP1;ratioP1;P1;durP2;ratioP2;P2;SDS_P1;SDS_P2;PMS_P1;PMS_P2;Temp;Humidity;BMP_temperature;BMP_pressure;BME280_temperature;BME280_humidity;BME280_pressure;Samples;Min_cycle;Max_cycle;Signal;HPM_P1;HPM_P2
2024/04/09 00:01:22;;;;;;;13.60;4.93;;;19.90;91.50;;;;;;5489985;26;20443;-56
2024/04/09 00:03:48;;;;;;;19.10;4.30;;;19.80;89.90;;;;;;5490325;26;20451;-56
2024/04/09 00:06:19;;;;;;;25.63;4.90;;;19.70;87.90;;;;;;5489630;26;21091;-56
2024/04/09 00:08:45;;;;;;;16.73;4.13;;;19.60;88.50;;;;;;5489510;26;20854;-56
2024/04/09 00:11:24;;;;;;;24.83;5.10;;;19.60;89.10;;;;;;5489707;26;20439;-56
2024/04/09 00:13:51;;;;;;;15.07;3.47;;;19.60;88.70;;;;;;5489625;26;20451;-56
2024/04/09 00:16:22;;;;;;;22.10;4.17;;;19.50;88.90;;;;;;5489661;26;20447;-55
2024/04/09 00:18:49;;;;;;;13.20;4.30;;;19.50;88.40;;;;;;5489570;26;20467;-56
2024/04/09 00:21:17;;;;;;;14.77;4.10;;;19.40;88.20;;;;;;5489381;26;20467;-56
2024/04/09 00:23:43;;;;;;;10.43;3.87;;;19.40;88.00;;;;;;5489662;26;20451;-56
2024/04/09 00:26:11;;;;;;;14.43;3.30;;;19.40;88.60;;;;;;5489395;26;20447;-55
2024/04/09 00:28:40;;;;;;;15.07;4.07;;;19.50;88.80;;;;;;5488913;26;20226;-56
2024/04/09 00:31:09;;;;;;;16.03;3.67;;;19.50;88.70;;;;;;5489294;26;20798;-56
2024/04/09 00:33:34;;;;;;;13.13;4.00;;;19.50;88.60;;;;;;5488817;26;20460;-56
2024/04/09 00:36:03;;;;;;;17.40;4.23;;;19.50;88.70;;;;;;5489721;26;20447;-56
2024/04/09 00:38:29;;;;;;;13.83;4.27;;;19.50;89.00;;;;;;5489141;26;20226;-56
2024/04/09 00:40:58;;;;;;;11.10;3.80;;;19.60;88.50;;;;;;5488624;26;21040;-56
2024/04/09 00:43:23;;;;;;;12.00;3.43;;;19.60;88.70;;;;;;5489148;26;20215;-56
2024/04/09 00:45:55;;;;;;;14.93;3.30;;;19.50;89.10;;;;;;5488457;26;20511;-56
2024/04/09 00:48:21;;;;;;;12.17;3.43;;;19.50;89.20;;;;;;5489624;26;20265;-55
2024/04/09 00:50:50;;;;;;;20.40;5.17;;;19.40;89.40;;;;;;5488893;26;20444;-56
2024/04/09 00:53:16;;;;;;;15.53;4.40;;;19.40;89.80;;;;;;5489716;26;20447;-56
2024/04/09 00:55:45;;;;;;;14.73;4.07;;;19.40;90.00;;;;;;5488931;26;20511;-56
2024/04/09 00:58:11;;;;;;;17.60;4.90;;;19.30;90.10;;;;;;5488308;26;20467;-56
2024/04/09 01:00:40;;;;;;;21.77;5.20;;;19.20;90.40;;;;;;5488691;26;20496;-56
2024/04/09 01:03:09;;;;;;;12.23;3.80;;;19.20;90.60;;;;;;5488640;26;20463;-56
2024/04/09 01:05:38;;;;;;;13.20;4.00;;;19.20;90.90;;;;;;5488821;26;20451;-56
2024/04/09 01:08:05;;;;;;;21.30;4.10;;;19.10;90.90;;;;;;5488608;26;20471;-57
2024/04/09 01:10:33;;;;;;;9.77;3.07;;;19.10;91.10;;;;;;5487996;26;20884;-56
2024/04/09 01:13:01;;;;;;;15.43;4.50;;;19.00;91.50;;;;;;5488616;26;20451;-56
2024/04/09 01:15:30;;;;;;;10.43;4.30;;;18.90;91.70;;;;;;5488760;26;20566;-56
2024/04/09 01:17:56;;;;;;;16.00;4.87;;;18.90;92.00;;;;;;5488908;26;20467;-56
2024/04/09 01:20:27;;;;;;;15.93;4.40;;;18.80;92.20;;;;;;5488069;26;21079;-56
2024/04/09 01:22:55;;;;;;;18.47;5.10;;;18.80;92.40;;;;;;5488608;26;20459;-56
2024/04/09 01:25:24;;;;;;;15.27;3.93;;;18.80;92.60;;;;;;5488532;26;20488;-56
2024/04/09 01:27:50;;;;;;;11.93;4.13;;;18.80;92.70;;;;;;5488291;26;20577;-57
2024/04/09 01:30:18;;;;;;;15.23;4.33;;;18.80;92.90;;;;;;5488142;26;21055;-56
2024/04/09 01:32:44;;;;;;;9.20;3.80;;;18.80;92.90;;;;;;5488677;26;20249;-56
2024/04/09 01:35:14;;;;;;;14.17;3.50;;;18.80;93.20;;;;;;5488532;26;20455;-59
2024/04/09 01:37:41;;;;;;;13.30;3.63;;;18.80;93.40;;;;;;5488940;26;20231;-56
2024/04/09 01:40:12;;;;;;;13.93;3.77;;;18.80;93.50;;;;;;5488605;26;20507;-56
2024/04/09 01:42:38;;;;;;;13.40;3.60;;;18.80;93.60;;;;;;5488656;26;20443;-60
2024/04/09 01:45:07;;;;;;;14.67;3.87;;;18.80;93.60;;;;;;5488168;26;20495;-57
2024/04/09 01:47:33;;;;;;;9.20;3.43;;;18.90;93.70;;;;;;5488799;26;20569;-57
2024/04/09 01:50:03;;;;;;;11.53;3.50;;;18.90;93.70;;;;;;5488066;26;20455;-56
2024/04/09 01:52:31;;;;;;;8.63;4.10;;;18.90;93.70;;;;;;5488671;26;20452;-57
2024/04/09 01:54:59;;;;;;;8.87;3.27;;;18.90;93.70;;;;;;5488280;26;20459;-56
2024/04/09 01:57:31;;;;;;;12.27;3.90;;;18.90;93.70;;;;;;5488154;26;21028;-56
2024/04/09 01:59:59;;;;;;;12.60;3.50;;;18.90;93.80;;;;;;5487692;26;20443;-57
2024/04/09 02:02:25;;;;;;;16.87;4.10;;;18.90;93.90;;;;;;5487932;26;20989;-57
2024/04/09 02:04:55;;;;;;;11.23;4.13;;;18.80;93.90;;;;;;5487739;26;20444;-56
2024/04/09 02:07:21;;;;;;;11.27;3.20;;;18.80;93.90;;;;;;5487373;26;20230;-56
2024/04/09 02:09:50;;;;;;;15.07;4.43;;;18.80;94.00;;;;;;5487831;26;20498;-56
2024/04/09 02:12:16;;;;;;;14.20;4.03;;;18.80;94.10;;;;;;5491407;26;20253;-56
2024/04/09 02:14:48;;;;;;;11.40;4.50;;;18.80;94.20;;;;;;5491247;26;20459;-56
2024/04/09 02:17:14;;;;;;;8.87;3.50;;;18.80;94.30;;;;;;5491644;26;20312;-56
2024/04/09 02:19:43;;;;;;;13.80;3.90;;;18.80;94.40;;;;;;5491764;26;20507;-57
2024/04/09 02:22:09;;;;;;;13.13;4.33;;;18.80;94.50;;;;;;5491401;26;20490;-56
2024/04/09 02:24:39;;;;;;;11.73;4.10;;;18.80;94.60;;;;;;5491225;26;20455;-56
2024/04/09 02:27:04;;;;;;;9.00;3.63;;;18.80;94.60;;;;;;5491699;26;20219;-56
2024/04/09 02:29:33;;;;;;;12.13;4.07;;;18.80;94.80;;;;;;5491798;26;20500;-56
2024/04/09 02:32:02;;;;;;;8.40;3.90;;;18.80;94.80;;;;;;5490986;26;20238;-56
2024/04/09 02:34:35;;;;;;;13.57;4.27;;;18.80;94.90;;;;;;5491726;26;20463;-56
2024/04/09 02:37:04;;;;;;;11.50;3.93;;;18.80;94.90;;;;;;5491657;26;20443;-57
2024/04/09 02:39:32;;;;;;;11.00;3.90;;;18.80;95.00;;;;;;5490868;26;20447;-57
2024/04/09 02:42:02;;;;;;;8.37;3.20;;;18.70;95.00;;;;;;5490473;26;20463;-59
2024/04/09 02:44:32;;;;;;;11.40;3.50;;;18.70;95.00;;;;;;5491161;26;20443;-56
2024/04/09 02:47:01;;;;;;;12.00;3.67;;;18.70;95.10;;;;;;5490758;26;20789;-56
2024/04/09 02:49:30;;;;;;;7.37;3.03;;;18.60;95.10;;;;;;5490971;26;20448;-56
2024/04/09 02:51:55;;;;;;;9.83;3.60;;;18.60;95.20;;;;;;5491220;26;20499;-56
2024/04/09 02:54:24;;;;;;;13.17;3.97;;;18.60;95.20;;;;;;5489970;26;20452;-56
2024/04/09 02:56:50;;;;;;;15.77;5.00;;;18.60;95.30;;;;;;5490836;26;20709;-56
2024/04/09 02:59:20;;;;;;;17.50;4.53;;;18.50;95.30;;;;;;5490957;26;20507;-56
2024/04/09 03:01:46;;;;;;;16.53;4.20;;;18.50;95.40;;;;;;5490633;26;20985;-56
2024/04/09 03:04:17;;;;;;;15.27;3.70;;;18.50;95.50;;;;;;5490702;26;20519;-57
2024/04/09 03:06:45;;;;;;;12.90;3.90;;;18.50;95.60;;;;;;5490917;26;20226;-56
2024/04/09 03:09:11;;;;;;;17.00;4.67;;;18.50;95.70;;;;;;5490404;26;20565;-56
2024/04/09 03:11:40;;;;;;;16.17;3.93;;;18.50;95.70;;;;;;5490217;26;20459;-56
2024/04/09 03:14:10;;;;;;;14.20;4.03;;;18.50;95.80;;;;;;5490330;26;20226;-56
2024/04/09 03:16:39;;;;;;;16.00;4.47;;;18.50;95.90;;;;;;5490247;26;20837;-56
2024/04/09 03:19:05;;;;;;;19.03;4.40;;;18.40;96.00;;;;;;5490686;26;20569;-56
2024/04/09 03:21:37;;;;;;;16.53;4.33;;;18.40;96.00;;;;;;5490424;26;20980;-56
2024/04/09 03:24:03;;;;;;;15.73;3.83;;;18.40;96.10;;;;;;5490295;26;20211;-56
2024/04/09 03:26:31;;;;;;;11.90;3.53;;;18.40;95.90;;;;;;5490407;26;20448;-56
2024/04/09 03:28:57;;;;;;;20.10;3.30;;;18.30;95.70;;;;;;5490662;26;20456;-56
2024/04/09 03:31:28;;;;;;;11.23;3.50;;;18.30;95.70;;;;;;5490113;26;20455;-56
2024/04/09 03:33:54;;;;;;;10.00;2.90;;;18.30;95.80;;;;;;5490213;26;20286;-56
2024/04/09 03:36:22;;;;;;;19.30;3.77;;;18.30;96.00;;;;;;5490348;26;20542;-56
2024/04/09 03:38:53;;;;;;;13.13;3.73;;;18.20;95.80;;;;;;5490272;26;20267;-56
2024/04/09 03:41:22;;;;;;;7.93;2.30;;;18.20;95.80;;;;;;5489976;26;20545;-57
2024/04/09 03:43:50;;;;;;;7.43;2.00;;;18.20;95.40;;;;;;5490037;26;20508;-57
2024/04/09 03:46:16;;;;;;;5.23;1.70;;;18.10;95.60;;;;;;5489855;26;20574;-56
2024/04/09 03:48:46;;;;;;;3.80;1.90;;;18.10;95.20;;;;;;5490026;26;20475;-57
2024/04/09 03:51:14;;;;;;;6.23;1.73;;;17.90;95.30;;;;;;5490192;26;20210;-58
2024/04/09 03:53:43;;;;;;;4.60;1.63;;;17.80;96.00;;;;;;5490088;26;20806;-58
2024/04/09 03:56:11;;;;;;;7.20;1.90;;;17.70;96.60;;;;;;5490132;26;20500;-59
2024/04/09 03:58:41;;;;;;;7.73;2.03;;;17.60;97.30;;;;;;5489328;26;20522;-59
2024/04/09 04:01:08;;;;;;;3.77;1.57;;;17.50;97.60;;;;;;5488702;26;20507;-58
2024/04/09 04:03:38;;;;;;;7.20;1.70;;;17.50;98.10;;;;;;5489655;26;20573;-58
2024/04/09 04:06:05;;;;;;;5.07;1.80;;;17.40;98.40;;;;;;5490238;26;20490;-58
2024/04/09 04:08:34;;;;;;;5.57;1.60;;;17.40;98.60;;;;;;5488787;26;20452;-58
2024/04/09 04:11:02;;;;;;;5.23;1.97;;;17.30;98.80;;;;;;5489637;26;20557;-57
2024/04/09 04:13:34;;;;;;;5.67;1.90;;;17.30;98.90;;;;;;5489336;26;20447;-58
2024/04/09 04:16:01;;;;;;;5.90;2.20;;;17.20;99.20;;;;;;5489930;26;20494;-57
2024/04/09 04:18:30;;;;;;;6.50;1.77;;;17.20;99.50;;;;;;5489206;26;20455;-58
2024/04/09 04:20:56;;;;;;;5.03;1.73;;;17.20;99.70;;;;;;5489422;26;20497;-57
2024/04/09 04:23:24;;;;;;;3.70;1.43;;;17.10;99.90;;;;;;5489316;26;20447;-57
2024/04/09 04:25:56;;;;;;;6.13;1.50;;;17.00;99.90;;;;;;5488474;26;20447;-59
2024/04/09 04:28:24;;;;;;;6.20;2.13;;;17.00;99.90;;;;;;5488648;26;21005;-57
2024/04/09 04:30:53;;;;;;;8.13;2.20;;;16.90;99.90;;;;;;5488008;26;20943;-57
2024/04/09 04:33:21;;;;;;;3.23;1.33;;;16.90;99.90;;;;;;5487591;26;21000;-57
2024/04/09 04:35:47;;;;;;;2.83;1.20;;;16.90;99.90;;;;;;5489063;26;20460;-57
2024/04/09 04:38:16;;;;;;;3.10;1.60;;;16.90;99.90;;;;;;5489172;26;20593;-57
2024/04/09 04:40:42;;;;;;;4.17;1.43;;;16.90;99.90;;;;;;5488358;26;20720;-57
2024/04/09 04:43:11;;;;;;;4.47;1.40;;;16.90;99.90;;;;;;5488627;26;20451;-57
2024/04/09 04:45:39;;;;;;;3.50;1.60;;;16.90;99.90;;;;;;5488147;26;20547;-57
2024/04/09 04:48:08;;;;;;;7.90;1.87;;;16.90;99.90;;;;;;5496818;26;20545;-57
2024/04/09 04:50:37;;;;;;;5.40;2.20;;;16.90;99.90;;;;;;5525259;26;20979;-56
2024/04/09 04:53:03;;;;;;;3.73;1.83;;;16.90;99.90;;;;;;5525989;26;20846;-58
2024/04/09 04:55:32;;;;;;;4.33;1.67;;;16.90;99.90;;;;;;5524827;26;20614;-58
2024/04/09 04:57:58;;;;;;;5.97;1.50;;;16.90;99.90;;;;;;5525447;26;20466;-57
2024/04/09 05:00:26;;;;;;;4.47;1.97;;;16.90;99.90;;;;;;5524847;26;20498;-56
2024/04/09 05:02:52;;;;;;;2.57;1.40;;;16.90;99.90;;;;;;5525806;26;20302;-57
2024/04/09 05:05:23;;;;;;;2.67;1.20;;;16.80;99.90;;;;;;5524994;26;20450;-57
2024/04/09 05:07:49;;;;;;;3.93;1.33;;;16.80;99.90;;;;;;5525792;26;20350;-57
2024/04/09 05:10:19;;;;;;;4.13;1.60;;;16.80;99.90;;;;;;5526512;26;20457;-57
2024/04/09 05:12:46;;;;;;;3.33;2.17;;;16.80;99.90;;;;;;5526173;26;20446;-57
2024/04/09 05:15:15;;;;;;;2.60;1.53;;;16.80;99.90;;;;;;5525864;26;20536;-57
2024/04/09 05:17:41;;;;;;;6.23;1.63;;;16.80;99.90;;;;;;5525921;26;21056;-57
2024/04/09 05:20:11;;;;;;;1.47;1.13;;;16.70;99.90;;;;;;5525737;26;20458;-58
2024/04/09 05:22:41;;;;;;;1.97;1.50;;;16.60;99.90;;;;;;5525362;26;20528;-59
2024/04/09 05:25:09;;;;;;;3.63;1.20;;;16.60;99.90;;;;;;5524806;26;20487;-58
2024/04/09 05:27:36;;;;;;;5.30;1.10;;;16.60;99.90;;;;;;5524832;26;20482;-58
2024/04/09 05:30:05;;;;;;;7.80;1.33;;;16.60;99.90;;;;;;5525127;26;20991;-58
2024/04/09 05:32:35;;;;;;;7.13;1.60;;;16.60;99.90;;;;;;5524906;26;20458;-58
2024/04/09 05:35:04;;;;;;;2.87;1.10;;;16.50;99.90;;;;;;5525127;26;20517;-58
2024/04/09 05:37:30;;;;;;;1.63;1.27;;;16.40;99.90;;;;;;5524564;26;21105;-59
2024/04/09 05:40:02;;;;;;;2.63;1.20;;;16.40;99.90;;;;;;5524134;26;20454;-58
2024/04/09 05:42:28;;;;;;;1.70;1.10;;;16.40;99.90;;;;;;5524729;26;20630;-57
2024/04/09 05:44:56;;;;;;;2.40;1.10;;;16.40;99.90;;;;;;5525827;26;20446;-58
2024/04/09 05:47:24;;;;;;;3.03;1.17;;;16.30;99.90;;;;;;5528547;26;20514;-57
2024/04/09 05:49:53;;;;;;;3.70;0.93;;;16.10;99.90;;;;;;5527874;26;20442;-59
2024/04/09 05:52:19;;;;;;;0.87;0.50;;;16.10;99.90;;;;;;5528029;26;20536;-57
2024/04/09 05:54:47;;;;;;;1.37;0.70;;;16.00;99.90;;;;;;5527750;26;20457;-56
2024/04/09 05:57:16;;;;;;;5.20;1.13;;;15.90;99.90;;;;;;5527675;26;20340;-59
2024/04/09 05:59:44;;;;;;;5.30;1.43;;;15.80;99.90;;;;;;5527834;26;21036;-57
2024/04/09 06:02:10;;;;;;;3.47;1.50;;;15.70;99.90;;;;;;5527835;26;21063;-57
2024/04/09 06:04:39;;;;;;;2.10;1.47;;;15.60;99.90;;;;;;5527997;26;20555;-57
2024/04/09 06:07:05;;;;;;;1.37;1.27;;;15.50;99.90;;;;;;5527892;26;20225;-58
2024/04/09 06:09:33;;;;;;;1.70;1.57;;;15.40;99.90;;;;;;5527642;26;20505;-58
2024/04/09 06:11:59;;;;;;;7.90;2.30;;;15.20;99.90;;;;;;5528079;26;20458;-57
2024/04/09 06:14:30;;;;;;;2.33;1.57;;;15.10;99.90;;;;;;5528198;26;21108;-59
2024/04/09 06:16:56;;;;;;;3.27;1.70;;;15.10;99.90;;;;;;5528173;26;20742;-58
2024/04/09 06:19:25;;;;;;;1.90;1.80;;;15.10;99.90;;;;;;5528296;26;20454;-57
2024/04/09 06:21:51;;;;;;;5.70;2.20;;;15.00;99.90;;;;;;5527179;26;20502;-57
2024/04/09 06:24:19;;;;;;;2.53;2.03;;;15.00;99.90;;;;;;5527827;26;20517;-57
2024/04/09 06:26:46;;;;;;;3.90;1.70;;;15.00;99.90;;;;;;5526476;26;20225;-58
2024/04/09 06:29:16;;;;;;;2.97;1.50;;;15.00;99.90;;;;;;5527430;26;20559;-57
2024/04/09 06:31:45;;;;;;;4.80;1.70;;;15.10;99.90;;;;;;5527768;26;20558;-57
2024/04/09 06:34:13;;;;;;;2.13;1.57;;;15.10;99.90;;;;;;5527800;26;20446;-57
2024/04/09 06:36:39;;;;;;;1.50;1.20;;;15.10;99.90;;;;;;5527624;26;20559;-56
2024/04/09 06:39:08;;;;;;;2.40;0.93;;;15.10;99.90;;;;;;5526987;26;21000;-57
2024/04/09 06:41:34;;;;;;;7.60;1.80;;;15.00;99.90;;;;;;5527360;26;20504;-57
2024/04/09 06:44:02;;;;;;;2.90;1.27;;;15.10;99.90;;;;;;5527108;26;20442;-56
2024/04/09 06:46:29;;;;;;;3.03;1.10;;;15.10;99.90;;;;;;5527340;26;20225;-57
2024/04/09 06:49:01;;;;;;;2.90;1.00;;;15.10;99.90;;;;;;5527136;26;20454;-57
2024/04/09 06:51:26;;;;;;;3.40;1.10;;;15.10;99.90;;;;;;5527459;26;20490;-56
2024/04/09 06:53:55;;;;;;;3.33;0.80;;;15.10;99.90;;;;;;5527453;26;20458;-56
2024/04/09 06:56:21;;;;;;;3.43;0.90;;;15.10;99.90;;;;;;5526870;26;20597;-56
2024/04/09 06:58:49;;;;;;;4.90;1.30;;;15.10;99.90;;;;;;5526923;26;20568;-57
2024/04/09 07:01:16;;;;;;;1.60;0.93;;;15.20;99.90;;;;;;5526097;26;20244;-56
2024/04/09 07:03:44;;;;;;;2.97;0.90;;;15.20;99.30;;;;;;5527177;26;20542;-57
2024/04/09 07:06:12;;;;;;;2.00;1.03;;;15.30;98.90;;;;;;5527180;26;20526;-56
2024/04/09 07:08:41;;;;;;;3.83;0.90;;;15.30;99.00;;;;;;5526922;26;20450;-57
2024/04/09 07:11:07;;;;;;;3.03;0.93;;;15.40;99.10;;;;;;5526911;26;20500;-57
2024/04/09 07:13:36;;;;;;;2.43;0.97;;;15.50;99.10;;;;;;5526633;26;20458;-57
2024/04/09 07:16:03;;;;;;;4.30;1.00;;;15.60;98.10;;;;;;5527328;26;20316;-58
2024/04/09 07:18:31;;;;;;;2.40;1.33;;;15.60;98.40;;;;;;5527402;26;20446;-56
2024/04/09 07:20:57;;;;;;;1.83;0.80;;;15.60;98.40;;;;;;5526772;26;20461;-57
2024/04/09 07:23:28;;;;;;;4.20;0.77;;;15.70;98.10;;;;;;5526879;26;20563;-56
2024/04/09 07:25:54;;;;;;;3.40;1.53;;;15.60;96.70;;;;;;5526128;26;20209;-57
2024/04/09 07:28:22;;;;;;;1.90;0.90;;;15.50;97.60;;;;;;5526494;26;20470;-56
2024/04/09 07:30:48;;;;;;;3.83;0.73;;;15.50;97.10;;;;;;5526377;26;20264;-56
2024/04/09 07:33:17;;;;;;;4.30;1.57;;;15.40;96.60;;;;;;5526424;26;20457;-56
2024/04/09 07:35:43;;;;;;;2.00;0.90;;;15.40;97.00;;;;;;5526138;26;20259;-56
2024/04/09 07:38:11;;;;;;;1.97;1.30;;;15.40;96.70;;;;;;5525907;26;20975;-57
2024/04/09 07:40:40;;;;;;;4.20;0.90;;;15.40;96.10;;;;;;5526370;26;20217;-57
2024/04/09 07:43:09;;;;;;;2.10;1.00;;;15.30;96.00;;;;;;5526347;26;20513;-57
2024/04/09 07:45:34;;;;;;;2.40;0.80;;;15.30;95.70;;;;;;5526391;26;21059;-57
2024/04/09 07:48:03;;;;;;;3.80;1.10;;;15.30;96.80;;;;;;5516957;26;20468;-56
2024/04/09 07:50:29;;;;;;;2.57;1.03;;;15.40;96.10;;;;;;5489837;26;20254;-56
2024/04/09 07:52:57;;;;;;;6.17;1.20;;;15.50;96.00;;;;;;5489678;26;20447;-56
2024/04/09 07:55:23;;;;;;;7.17;1.13;;;15.50;96.10;;;;;;5489616;26;20285;-58
2024/04/09 07:57:55;;;;;;;2.27;0.93;;;15.60;95.50;;;;;;5489253;26;20577;-56
2024/04/09 08:00:21;;;;;;;3.77;1.10;;;15.60;95.10;;;;;;5489168;26;20206;-57
2024/04/09 08:02:50;;;;;;;1.00;0.83;;;15.70;94.10;;;;;;5489479;26;20499;-56
2024/04/09 08:05:16;;;;;;;1.17;0.83;;;15.70;93.80;;;;;;5489065;26;20218;-56
2024/04/09 08:07:45;;;;;;;2.93;1.27;;;15.70;93.10;;;;;;5488035;26;20890;-56
2024/04/09 08:10:11;;;;;;;4.37;0.83;;;15.60;93.20;;;;;;5489411;26;20467;-56
2024/04/09 08:12:40;;;;;;;2.90;1.10;;;15.60;93.50;;;;;;5488986;26;20530;-56
2024/04/09 08:15:09;;;;;;;3.73;1.00;;;15.80;93.30;;;;;;5489274;26;20443;-56
2024/04/09 08:17:38;;;;;;;3.10;0.93;;;15.90;93.10;;;;;;5489132;26;20618;-56
2024/04/09 08:20:07;;;;;;;2.57;1.10;;;16.10;92.40;;;;;;5489715;26;21095;-57
2024/04/09 08:22:37;;;;;;;4.57;0.90;;;16.20;92.60;;;;;;5488868;26;20440;-56
2024/04/09 08:25:03;;;;;;;4.00;0.80;;;16.20;92.60;;;;;;5489019;26;20498;-57
2024/04/09 08:27:36;;;;;;;3.47;0.90;;;16.20;92.20;;;;;;5489079;26;20855;-56
2024/04/09 08:30:03;;;;;;;4.97;1.10;;;16.20;92.20;;;;;;5488783;26;20504;-56
2024/04/09 08:32:35;;;;;;;4.73;0.70;;;16.20;92.20;;;;;;5489253;26;20443;-56
2024/04/09 08:35:01;;;;;;;4.50;1.00;;;16.20;91.70;;;;;;5489220;26;20499;-56
2024/04/09 08:37:30;;;;;;;4.93;1.40;;;16.20;91.30;;;;;;5490197;26;21085;-56
2024/04/09 08:39:56;;;;;;;5.10;1.30;;;16.10;90.00;;;;;;5489255;26;20444;-58
2024/04/09 08:42:25;;;;;;;4.77;1.23;;;16.00;90.30;;;;;;5489250;26;20448;-56
2024/04/09 08:44:51;;;;;;;1.90;0.50;;;16.00;88.60;;;;;;5488642;26;20447;-56
2024/04/09 08:47:21;;;;;;;2.73;0.70;;;15.80;85.90;;;;;;5486831;26;20468;-57
2024/04/09 08:49:53;;;;;;;3.20;0.70;;;15.70;85.10;;;;;;5488262;26;20444;-56
2024/04/09 08:52:23;;;;;;;2.87;0.83;;;15.50;85.40;;;;;;5488603;26;20455;-57
2024/04/09 08:54:49;;;;;;;4.13;0.80;;;15.40;88.30;;;;;;5488926;26;20444;-56
2024/04/09 08:57:18;;;;;;;3.77;0.83;;;15.40;86.70;;;;;;5488228;26;20523;-56
2024/04/09 08:59:44;;;;;;;3.80;1.27;;;15.30;87.90;;;;;;5489020;26;20447;-56
2024/04/09 09:02:14;;;;;;;4.40;1.00;;;15.40;87.20;;;;;;5488257;26;20562;-56
2024/04/09 09:04:41;;;;;;;6.00;1.57;;;15.30;86.30;;;;;;5488762;26;20206;-56
2024/04/09 09:07:18;;;;;;;2.77;1.00;;;15.30;86.90;;;;;;5488657;26;20460;-57
2024/04/09 09:09:45;;;;;;;3.67;1.10;;;15.50;86.60;;;;;;5488341;26;20799;-56
2024/04/09 09:12:14;;;;;;;3.93;1.00;;;15.50;85.30;;;;;;5487894;26;20451;-55
2024/04/09 09:14:48;;;;;;;3.60;0.67;;;15.40;83.50;;;;;;5488131;26;20603;-56
2024/04/09 09:17:17;;;;;;;4.77;0.70;;;15.50;84.30;;;;;;5487471;26;20455;-57
2024/04/09 09:19:43;;;;;;;3.90;1.07;;;15.50;84.00;;;;;;5490216;26;20459;-57
2024/04/09 09:22:12;;;;;;;7.37;1.53;;;15.50;85.20;;;;;;5491968;26;20911;-57
2024/04/09 09:24:41;;;;;;;2.20;1.00;;;15.40;84.80;;;;;;5491008;26;20695;-56
2024/04/09 09:27:11;;;;;;;7.30;1.07;;;15.30;84.50;;;;;;5491810;26;20443;-56
2024/04/09 09:29:37;;;;;;;8.73;1.17;;;15.20;84.40;;;;;;5491966;26;20542;-59
2024/04/09 09:32:12;;;;;;;6.43;1.40;;;15.20;84.90;;;;;;5491683;26;20940;-56
2024/04/09 09:34:40;;;;;;;2.80;1.30;;;15.10;85.70;;;;;;5491308;26;20606;-56
2024/04/09 09:37:10;;;;;;;2.47;1.00;;;15.10;85.40;;;;;;5491308;26;20786;-57
2024/04/09 09:39:40;;;;;;;4.03;1.00;;;15.10;85.00;;;;;;5491657;26;20490;-57
2024/04/09 09:42:09;;;;;;;1.90;0.83;;;15.20;85.10;;;;;;5491561;26;21023;-56
2024/04/09 09:44:36;;;;;;;5.80;0.90;;;15.30;85.70;;;;;;5491302;26;20467;-57
2024/04/09 09:47:06;;;;;;;3.87;0.80;;;15.40;84.30;;;;;;5491302;26;20507;-56
2024/04/09 09:49:32;;;;;;;4.87;1.00;;;15.50;84.40;;;;;;5491860;26;20791;-57
2024/04/09 09:52:01;;;;;;;7.23;1.17;;;15.70;81.00;;;;;;5491523;26;20502;-59
2024/04/09 09:54:27;;;;;;;5.37;1.07;;;15.80;81.90;;;;;;5491489;26;20565;-56
2024/04/09 09:57:04;;;;;;;2.83;0.90;;;15.90;81.00;;;;;;5491172;26;20560;-56
2024/04/09 09:59:35;;;;;;;7.63;1.27;;;16.20;80.20;;;;;;5491074;26;20463;-56
2024/04/09 10:02:05;;;;;;;5.37;0.77;;;16.40;79.00;;;;;;5490956;26;20444;-56
2024/04/09 10:04:31;;;;;;;5.30;0.90;;;16.50;76.70;;;;;;5491940;26;20495;-56
2024/04/09 10:07:02;;;;;;;5.47;0.93;;;16.50;79.10;;;;;;5491186;26;20511;-56
2024/04/09 10:09:41;;;;;;;2.93;1.30;;;16.70;80.20;;;;;;5491088;26;21076;-56
2024/04/09 10:12:21;;;;;;;3.37;0.90;;;16.80;78.70;;;;;;5490925;26;20498;-57
2024/04/09 10:14:55;;;;;;;6.50;1.10;;;16.80;76.80;;;;;;5490790;26;20448;-57
2024/04/09 10:17:23;;;;;;;2.90;1.03;;;16.80;77.30;;;;;;5490907;26;20459;-56
2024/04/09 10:19:49;;;;;;;6.20;1.00;;;16.70;76.80;;;;;;5490848;26;20491;-56
2024/04/09 10:22:18;;;;;;;3.07;0.97;;;16.70;77.30;;;;;;5490717;26;20455;-57
2024/04/09 10:24:44;;;;;;;5.40;1.40;;;16.70;78.30;;;;;;5490660;26;20222;-56
2024/04/09 10:27:15;;;;;;;4.00;1.37;;;16.60;78.40;;;;;;5490725;26;20457;-56
2024/04/09 10:29:50;;;;;;;4.30;1.07;;;16.60;79.00;;;;;;5491144;26;20444;-56
2024/04/09 10:32:24;;;;;;;5.93;1.00;;;16.60;79.50;;;;;;5489066;26;20559;-56
2024/04/09 10:34:50;;;;;;;2.33;1.10;;;16.70;78.90;;;;;;5490419;26;21036;-56
2024/04/09 10:37:20;;;;;;;3.67;1.17;;;16.90;77.20;;;;;;5490740;26;20463;-56
2024/04/09 10:39:45;;;;;;;5.77;1.57;;;17.00;75.00;;;;;;5489706;26;20455;-57
2024/04/09 10:42:21;;;;;;;2.40;0.93;;;17.20;73.70;;;;;;5490689;26;20499;-56
2024/04/09 10:44:47;;;;;;;5.27;1.00;;;17.20;72.40;;;;;;5490166;26;20206;-57
2024/04/09 10:47:17;;;;;;;15.27;1.50;;;17.20;72.70;;;;;;5489562;26;20475;-56
2024/04/09 10:49:43;;;;;;;4.87;1.00;;;17.40;71.80;;;;;;5524059;26;20522;-56
2024/04/09 10:52:11;;;;;;;3.37;1.10;;;17.50;68.20;;;;;;5527366;26;20458;-58
2024/04/09 10:54:37;;;;;;;4.60;1.03;;;17.80;68.90;;;;;;5527050;26;20229;-57
2024/04/09 10:57:06;;;;;;;2.67;0.93;;;17.90;66.40;;;;;;5527910;26;21084;-56
2024/04/09 10:59:35;;;;;;;2.47;0.87;;;18.00;66.30;;;;;;5527266;26;20711;-57
2024/04/09 11:02:08;;;;;;;5.33;1.20;;;18.30;67.40;;;;;;5526725;26;20507;-57
2024/04/09 11:04:34;;;;;;;2.60;0.93;;;18.60;64.00;;;;;;5526987;26;20446;-58
2024/04/09 11:07:03;;;;;;;5.77;1.37;;;19.00;61.30;;;;;;5526175;26;20787;-57
2024/04/09 11:09:29;;;;;;;8.30;1.60;;;19.40;60.20;;;;;;5527268;26;20528;-57
2024/04/09 11:11:58;;;;;;;8.00;1.03;;;19.90;58.10;;;;;;5526300;26;20446;-57
2024/04/09 11:14:24;;;;;;;3.47;1.03;;;20.10;56.80;;;;;;5527428;26;20442;-57
2024/04/09 11:16:57;;;;;;;3.80;1.23;;;20.00;56.10;;;;;;5526974;26;20446;-57
2024/04/09 11:19:25;;;;;;;4.87;1.27;;;19.80;56.10;;;;;;5526823;26;20442;-57
2024/04/09 11:21:54;;;;;;;4.10;0.83;;;19.70;56.00;;;;;;5527127;26;20493;-57
2024/04/09 11:24:21;;;;;;;5.10;1.50;;;19.70;55.40;;;;;;5527120;26;20455;-57
2024/04/09 11:26:49;;;;;;;4.03;1.00;;;19.80;55.10;;;;;;5526256;26;20555;-57
2024/04/09 11:29:19;;;;;;;3.93;1.03;;;19.80;53.00;;;;;;5527661;26;20507;-59
2024/04/09 11:31:49;;;;;;;5.60;1.50;;;19.40;53.30;;;;;;5526407;26;20510;-56
2024/04/09 11:34:26;;;;;;;6.20;1.70;;;19.10;55.30;;;;;;5525940;26;20578;-57
2024/04/09 11:36:55;;;;;;;3.03;0.90;;;18.80;55.80;;;;;;5526461;26;20462;-57
2024/04/09 11:39:21;;;;;;;8.60;1.30;;;18.70;57.80;;;;;;5526297;26;20442;-56
2024/04/09 11:41:50;;;;;;;8.10;1.63;;;18.70;57.80;;;;;;5526626;26;20518;-56
2024/04/09 11:44:19;;;;;;;7.13;1.30;;;18.70;56.90;;;;;;5527317;26;20454;-56
2024/04/09 11:46:48;;;;;;;5.33;0.90;;;18.80;56.20;;;;;;5526667;26;20457;-57
2024/04/09 11:49:14;;;;;;;4.20;1.60;;;19.10;55.60;;;;;;5526733;26;20450;-56
2024/04/09 11:51:45;;;;;;;11.13;1.43;;;19.50;56.10;;;;;;5527059;26;20438;-57
2024/04/09 11:54:11;;;;;;;8.93;1.33;;;19.90;55.70;;;;;;5526859;26;20248;-57
2024/04/09 11:56:41;;;;;;;3.37;1.20;;;20.50;53.00;;;;;;5526880;26;20493;-58
2024/04/09 11:59:06;;;;;;;6.23;1.20;;;21.00;51.30;;;;;;5527227;26;20518;-57
2024/04/09 12:01:35;;;;;;;11.13;1.20;;;21.50;49.60;;;;;;5526376;26;20439;-56
2024/04/09 12:04:01;;;;;;;5.47;1.53;;;21.90;47.80;;;;;;5526498;26;20711;-57
2024/04/09 12:06:30;;;;;;;3.83;1.30;;;22.40;47.00;;;;;;5526276;26;20493;-56
2024/04/09 12:08:59;;;;;;;7.43;1.20;;;23.20;45.50;;;;;;5526019;26;20221;-57
2024/04/09 12:11:28;;;;;;;2.90;1.20;;;23.70;43.40;;;;;;5526372;26;21047;-57
2024/04/09 12:13:54;;;;;;;4.83;1.27;;;23.30;42.40;;;;;;5526076;26;20454;-57
2024/04/09 12:16:22;;;;;;;8.23;1.80;;;22.40;44.30;;;;;;5525635;26;20490;-57
2024/04/09 12:18:48;;;;;;;9.77;1.30;;;22.00;46.40;;;;;;5525801;26;20221;-56
2024/04/09 12:21:17;;;;;;;15.63;2.53;;;21.10;45.50;;;;;;5525286;26;20807;-56
2024/04/09 12:23:43;;;;;;;6.67;2.30;;;20.50;47.70;;;;;;5525747;26;20297;-56
2024/04/09 12:26:14;;;;;;;12.03;1.50;;;20.40;49.00;;;;;;5526089;26;20450;-57
2024/04/09 12:28:39;;;;;;;6.50;1.07;;;20.30;49.30;;;;;;5525514;26;20233;-58
2024/04/09 12:31:08;;;;;;;16.97;3.60;;;20.20;48.40;;;;;;5525787;26;20952;-59
2024/04/09 12:33:34;;;;;;;14.53;1.93;;;20.60;48.30;;;;;;5526116;26;20286;-57
2024/04/09 12:36:04;;;;;;;9.97;1.83;;;21.60;49.00;;;;;;5525777;26;20531;-57
2024/04/09 12:38:29;;;;;;;16.83;2.30;;;22.30;44.30;;;;;;5526092;26;20703;-56
2024/04/09 12:40:58;;;;;;;12.40;1.80;;;21.80;45.00;;;;;;5525424;26;20666;-57
2024/04/09 12:43:26;;;;;;;12.80;2.10;;;21.90;45.60;;;;;;5525591;26;20300;-57
2024/04/09 12:45:56;;;;;;;13.73;1.80;;;22.20;44.80;;;;;;5524757;26;20434;-57
2024/04/09 12:48:22;;;;;;;8.47;1.30;;;22.60;44.80;;;;;;5524823;26;20823;-56